createdAt,value
2018-12-09T00:01:48.386Z,76.68
2018-12-09T00:04:20.639Z,76.94
2018-12-09T00:06:52.988Z,77.17
2018-12-09T00:09:23.492Z,77.48
2018-12-09T00:11:54.150Z,77.64
2018-12-09T00:14:24.392Z,77.88
2018-12-09T00:16:54.639Z,77.98
2018-12-09T00:19:25.191Z,77.77
2018-12-09T00:21:55.877Z,77.64
2018-12-09T00:24:25.999Z,77.59
2018-12-09T00:26:56.947Z,77.49
2018-12-09T00:29:27.356Z,77.21
2018-12-09T00:31:58.676Z,77.51
2018-12-09T00:34:30.078Z,77.21
2018-12-09T00:37:00.348Z,77.46
2018-12-09T00:39:30.433Z,77.61
2018-12-09T00:42:00.975Z,77.43
2018-12-09T00:44:33.330Z,77.19
2018-12-09T00:47:06.178Z,77.12
2018-12-09T00:49:36.456Z,77.20
2018-12-09T00:52:06.794Z,77.32
2018-12-09T00:54:37.800Z,77.41
2018-12-09T00:57:08.069Z,77.56
2018-12-09T00:59:38.634Z,77.32
2018-12-09T01:02:10.699Z,77.72
2018-12-09T01:04:41.739Z,77.26
2018-12-09T01:07:12.145Z,77.20
2018-12-09T01:09:42.839Z,77.28
2018-12-09T01:12:13.912Z,77.54
2018-12-09T01:14:44.158Z,77.35
2018-12-09T01:17:15.958Z,76.97
2018-12-09T01:19:47.238Z,77.12
2018-12-09T01:22:18.095Z,77.36
2018-12-09T01:24:48.263Z,76.69
2018-12-09T01:27:18.624Z,76.53
2018-12-09T01:29:49.392Z,76.21
2018-12-09T01:32:20.744Z,76.08
2018-12-09T01:34:51.054Z,76.09
2018-12-09T01:37:22.290Z,75.44
2018-12-09T01:39:53.992Z,75.45
2018-12-09T01:42:24.449Z,75.35
2018-12-09T01:44:55.260Z,75.54
2018-12-09T01:47:25.553Z,75.30
2018-12-09T01:49:56.005Z,75.19
2018-12-09T01:52:26.344Z,74.69
2018-12-09T01:54:56.600Z,74.71
2018-12-09T01:57:26.786Z,74.74
2018-12-09T01:59:57.064Z,74.74
2018-12-09T02:02:27.565Z,74.24
2018-12-09T02:04:57.837Z,73.69
2018-12-09T02:07:28.070Z,74.25
2018-12-09T02:09:58.824Z,74.35
2018-12-09T02:12:29.329Z,73.89
2018-12-09T02:14:59.554Z,73.84
2018-12-09T02:17:29.705Z,73.96
2018-12-09T02:20:00.262Z,74.04
2018-12-09T02:22:30.538Z,73.76
2018-12-09T02:25:01.161Z,73.56
2018-12-09T02:27:31.977Z,73.29
2018-12-09T02:30:02.288Z,72.83
2018-12-09T02:32:36.529Z,72.09
2018-12-09T02:35:07.945Z,71.96
2018-12-09T02:37:38.336Z,72.43
2018-12-09T02:40:08.802Z,71.85
2018-12-09T02:42:38.932Z,71.94
2018-12-09T02:45:09.656Z,72.03
2018-12-09T02:47:40.417Z,71.76
2018-12-09T02:50:10.589Z,71.51
2018-12-09T02:52:41.596Z,71.44
2018-12-09T02:55:11.674Z,71.78
2018-12-09T03:00:19.081Z,71.62
2018-12-09T03:02:49.287Z,71.61
2018-12-09T03:05:23.646Z,71.39
2018-12-09T03:07:53.989Z,71.81
2018-12-09T03:10:24.270Z,71.77
2018-12-09T03:12:54.518Z,71.36
2018-12-09T03:18:01.062Z,71.32
2018-12-09T03:20:32.809Z,71.39
2018-12-09T03:23:04.248Z,71.36
2018-12-09T03:25:34.349Z,71.85
2018-12-09T03:28:04.630Z,72.03
2018-12-09T03:30:35.413Z,71.92
2018-12-09T03:35:48.320Z,71.75
2018-12-09T03:40:54.687Z,71.86
2018-12-09T03:43:29.255Z,72.09
2018-12-09T03:45:59.863Z,72.28
2018-12-09T03:48:30.024Z,71.98
2018-12-09T03:51:00.267Z,72.73
2018-12-09T03:56:07.116Z,72.98
2018-12-09T03:58:39.270Z,73.20
2018-12-09T04:03:46.206Z,73.81
2018-12-09T04:06:16.679Z,73.96
2018-12-09T04:08:48.604Z,74.01
2018-12-09T04:11:19.066Z,74.37
2018-12-09T04:13:50.964Z,75.12
2018-12-09T04:16:21.793Z,74.92
2018-12-09T04:18:52.079Z,74.53
2018-12-09T04:21:22.758Z,74.89
2018-12-09T04:26:29.973Z,74.74
2018-12-09T04:29:00.086Z,74.62
2018-12-09T04:31:30.457Z,74.75
2018-12-09T04:34:00.908Z,74.46
2018-12-09T04:36:31.246Z,74.00
2018-12-09T04:39:01.532Z,74.10
2018-12-09T04:44:09.254Z,73.77
2018-12-09T04:46:39.438Z,73.86
2018-12-09T04:49:09.801Z,73.83
2018-12-09T04:51:56.203Z,73.65
2018-12-09T04:54:28.300Z,73.42
2018-12-09T04:56:58.620Z,73.50
2018-12-09T04:59:31.884Z,72.95
2018-12-09T05:02:02.788Z,73.34
2018-12-09T05:07:11.146Z,73.33
2018-12-09T05:09:41.118Z,73.07
2018-12-09T05:12:11.522Z,72.98
2018-12-09T05:14:42.089Z,73.17
2018-12-09T05:17:12.273Z,73.31
2018-12-09T05:19:43.686Z,73.34
2018-12-09T05:22:15.033Z,74.16
2018-12-09T05:24:45.236Z,74.23
2018-12-09T05:27:16.116Z,75.21
2018-12-09T05:29:46.655Z,75.39
2018-12-09T05:32:17.441Z,75.42
2018-12-09T05:37:24.356Z,75.49
2018-12-09T05:42:31.131Z,75.02
2018-12-09T05:45:01.184Z,75.75
2018-12-09T05:47:32.901Z,75.81
2018-12-09T05:50:03.110Z,76.10
2018-12-09T05:52:33.756Z,76.61
2018-12-09T05:55:04.055Z,76.57
2018-12-09T05:57:39.271Z,77.07
2018-12-09T06:00:09.979Z,77.10
2018-12-09T06:02:51.882Z,77.06
2018-12-09T06:05:22.341Z,77.73
2018-12-09T06:07:53.351Z,77.38
2018-12-09T06:10:24.030Z,77.45
2018-12-09T06:12:54.677Z,76.99
2018-12-09T06:15:24.839Z,77.69
2018-12-09T06:17:54.999Z,77.85
2018-12-09T06:20:25.357Z,77.55
2018-12-09T06:22:55.890Z,77.68
2018-12-09T06:25:26.820Z,78.43
2018-12-09T06:27:57.108Z,78.68
2018-12-09T06:30:27.732Z,78.64
2018-12-09T06:32:58.549Z,78.48
2018-12-09T06:35:29.058Z,77.97
2018-12-09T06:37:59.449Z,77.16
2018-12-09T06:40:30.059Z,77.58
2018-12-09T06:43:00.337Z,78.48
2018-12-09T06:45:30.584Z,76.94
2018-12-09T06:48:01.372Z,77.10
2018-12-09T06:50:31.903Z,76.86
2018-12-09T06:53:02.877Z,77.80
2018-12-09T06:55:34.159Z,78.27
2018-12-09T06:58:04.339Z,79.09
2018-12-09T07:00:35.190Z,79.18
2018-12-09T07:03:05.470Z,78.97
2018-12-09T07:05:36.221Z,78.84
2018-12-09T07:08:06.998Z,79.06
2018-12-09T07:10:37.911Z,78.78
2018-12-09T07:13:08.060Z,79.25
2018-12-09T07:15:38.319Z,79.42
2018-12-09T07:18:08.395Z,79.28
2018-12-09T07:20:39.678Z,79.65
2018-12-09T07:23:10.214Z,79.65
2018-12-09T07:25:41.611Z,78.95
2018-12-09T07:28:12.040Z,79.02
2018-12-09T07:30:42.605Z,79.19
2018-12-09T07:35:49.780Z,78.78
2018-12-09T07:38:19.830Z,79.38
2018-12-09T07:40:50.194Z,79.23
2018-12-09T07:43:21.311Z,79.54
2018-12-09T07:45:51.813Z,78.51
2018-12-09T07:48:22.100Z,78.49
2018-12-09T07:50:52.466Z,78.86
2018-12-09T07:53:22.788Z,77.59
2018-12-09T07:55:53.497Z,78.30
2018-12-09T07:58:23.676Z,78.37
2018-12-09T08:00:53.785Z,77.99
2018-12-09T08:03:24.311Z,77.64
2018-12-09T08:05:55.051Z,77.66
2018-12-09T08:08:25.294Z,77.13
2018-12-09T08:10:55.664Z,76.22
2018-12-09T08:13:26.084Z,76.37
2018-12-09T08:15:57.781Z,74.08
2018-12-09T08:18:27.998Z,74.00
2018-12-09T08:20:58.257Z,74.54
2018-12-09T08:23:28.559Z,74.05
2018-12-09T08:25:59.297Z,73.60
2018-12-09T08:28:30.165Z,72.96
2018-12-09T08:31:00.918Z,73.37
2018-12-09T08:33:32.016Z,73.84
2018-12-09T08:36:02.748Z,74.91
2018-12-09T08:38:33.731Z,74.93
2018-12-09T08:41:04.044Z,74.98
2018-12-09T08:43:34.259Z,75.79
2018-12-09T08:46:07.217Z,76.26
2018-12-09T08:48:38.528Z,76.28
2018-12-09T08:51:08.582Z,76.77
2018-12-09T08:53:38.888Z,77.18
2018-12-09T08:56:11.066Z,76.58
2018-12-09T08:58:41.402Z,76.21
2018-12-09T09:01:12.274Z,76.61
2018-12-09T09:03:43.127Z,75.56
2018-12-09T09:06:13.393Z,74.55
2018-12-09T09:08:43.916Z,75.59
2018-12-09T09:11:14.320Z,74.72
2018-12-09T09:13:45.173Z,74.31
2018-12-09T09:16:15.596Z,74.54
2018-12-09T09:18:46.513Z,74.07
2018-12-09T09:21:16.674Z,74.19
2018-12-09T09:23:47.177Z,73.26
2018-12-09T09:26:17.300Z,73.08
2018-12-09T09:28:47.485Z,73.08
2018-12-09T09:31:17.701Z,72.20
2018-12-09T09:33:47.950Z,72.24
2018-12-09T09:36:18.071Z,72.26
2018-12-09T09:38:48.515Z,71.59
2018-12-09T09:41:18.630Z,71.63
2018-12-09T09:43:49.199Z,71.54
2018-12-09T09:46:19.497Z,71.26
2018-12-09T09:48:49.996Z,70.56
2018-12-09T09:51:21.227Z,69.79
2018-12-09T09:53:52.189Z,69.90
2018-12-09T09:56:22.409Z,68.98
2018-12-09T09:58:52.587Z,68.43
2018-12-09T10:01:23.457Z,68.41
2018-12-09T10:03:55.124Z,67.48
2018-12-09T10:06:26.099Z,67.46
2018-12-09T10:08:56.342Z,66.90
2018-12-09T10:11:27.375Z,66.84
2018-12-09T10:13:58.311Z,66.50
2018-12-09T10:19:04.892Z,65.16
2018-12-09T10:21:35.060Z,65.35
2018-12-09T10:24:05.928Z,65.32
2018-12-09T10:26:36.728Z,65.03
2018-12-09T10:29:08.431Z,64.71
2018-12-09T10:31:38.781Z,64.57
2018-12-09T10:34:08.931Z,64.49
2018-12-09T10:36:39.172Z,64.43
2018-12-09T10:39:09.443Z,64.76
2018-12-09T10:41:39.620Z,64.24
2018-12-09T10:44:09.760Z,64.08
2018-12-09T10:46:39.772Z,64.27
2018-12-09T10:49:09.934Z,63.16
2018-12-09T10:54:17.679Z,62.83
2018-12-09T10:56:47.799Z,62.44
2018-12-09T10:59:17.813Z,62.13
2018-12-09T11:01:53.024Z,61.96
2018-12-09T11:04:23.308Z,62.67
2018-12-09T11:06:54.471Z,63.00
2018-12-09T11:09:24.571Z,63.56
2018-12-09T11:11:54.862Z,63.57
2018-12-09T11:14:25.883Z,63.30
2018-12-09T11:16:56.616Z,63.47
2018-12-09T11:19:26.883Z,63.33
2018-12-09T11:21:57.150Z,64.43
2018-12-09T11:24:27.182Z,64.46
2018-12-09T11:26:57.653Z,65.11
2018-12-09T11:29:27.975Z,65.48
2018-12-09T11:31:58.844Z,66.12
2018-12-09T11:34:29.318Z,66.93
2018-12-09T11:36:59.680Z,68.37
2018-12-09T11:39:29.686Z,69.72
2018-12-09T11:41:59.657Z,71.63
2018-12-09T11:44:29.712Z,73.10
2018-12-09T11:47:00.467Z,73.33
2018-12-09T11:49:31.091Z,74.90
2018-12-09T11:52:01.607Z,75.62
2018-12-09T11:57:08.078Z,75.90
2018-12-09T11:59:38.138Z,75.05
2018-12-09T12:02:08.156Z,74.88
2018-12-09T12:04:39.641Z,75.40
2018-12-09T12:07:09.963Z,74.24
2018-12-09T12:09:41.026Z,73.87
2018-12-09T12:12:11.907Z,74.26
2018-12-09T12:14:42.271Z,73.64
2018-12-09T12:17:12.599Z,73.72
2018-12-09T12:19:42.609Z,73.58
2018-12-09T12:22:12.776Z,73.73
2018-12-09T12:24:43.054Z,73.95
2018-12-09T12:27:13.245Z,75.37
2018-12-09T12:29:43.686Z,75.65
2018-12-09T12:32:13.854Z,76.68
2018-12-09T12:34:50.604Z,77.45
2018-12-09T12:37:21.058Z,78.37
2018-12-09T12:39:52.103Z,77.09
2018-12-09T12:42:22.512Z,76.80
2018-12-09T12:44:52.853Z,75.81
2018-12-09T12:47:23.653Z,75.43
2018-12-09T12:49:54.306Z,75.59
2018-12-09T12:52:25.401Z,75.95
2018-12-09T12:54:55.979Z,74.65
2018-12-09T12:57:30.369Z,73.66
2018-12-09T13:00:02.200Z,75.30
2018-12-09T13:02:33.279Z,74.78
2018-12-09T13:05:03.898Z,73.68
2018-12-09T13:07:35.238Z,72.54
2018-12-09T13:10:06.378Z,73.43
2018-12-09T13:12:36.687Z,74.00
2018-12-09T13:15:09.041Z,74.61
2018-12-09T13:17:43.185Z,74.30
2018-12-09T13:20:18.070Z,74.92
2018-12-09T13:22:48.652Z,75.91
2018-12-09T13:25:18.883Z,77.38
2018-12-09T13:27:49.244Z,77.17
2018-12-09T13:30:19.341Z,78.02
2018-12-09T13:32:50.441Z,78.07
2018-12-09T13:35:22.295Z,78.88
2018-12-09T13:37:52.839Z,79.33
2018-12-09T13:40:23.730Z,80.12
2018-12-09T13:42:54.328Z,80.94
2018-12-09T13:45:25.235Z,81.07
2018-12-09T13:47:56.200Z,80.99
2018-12-09T13:50:27.099Z,81.70
2018-12-09T13:52:58.077Z,82.17
2018-12-09T13:55:28.295Z,82.28
2018-12-09T13:57:58.884Z,82.84
2018-12-09T14:00:29.416Z,83.02
2018-12-09T14:03:00.194Z,83.03
2018-12-09T14:05:31.894Z,83.71
2018-12-09T14:08:02.261Z,83.58
2018-12-09T14:10:33.915Z,83.71
2018-12-09T14:13:03.999Z,84.08
2018-12-09T14:15:35.185Z,84.28
2018-12-09T14:18:05.337Z,84.17
2018-12-09T14:20:36.086Z,84.32
2018-12-09T14:23:06.773Z,83.93
2018-12-09T14:25:37.658Z,83.86
2018-12-09T14:28:07.727Z,83.67
2018-12-09T14:33:14.370Z,83.72
2018-12-09T14:35:44.465Z,83.41
2018-12-09T14:38:14.689Z,83.65
2018-12-09T14:40:44.990Z,83.47
2018-12-09T14:43:15.352Z,83.04
2018-12-09T14:45:48.886Z,83.49
2018-12-09T14:48:17.952Z,83.05
2018-12-09T14:50:52.337Z,83.74
2018-12-09T14:53:22.642Z,83.23
2018-12-09T14:55:53.081Z,83.39
2018-12-09T14:58:23.616Z,83.16
2018-12-09T15:00:53.821Z,83.11
2018-12-09T15:03:24.470Z,82.84
2018-12-09T15:05:55.066Z,82.96
2018-12-09T15:08:26.010Z,82.83
2018-12-09T15:10:56.379Z,83.07
2018-12-09T15:13:26.871Z,83.00
2018-12-09T15:15:57.299Z,83.65
2018-12-09T15:18:27.687Z,83.18
2018-12-09T15:20:57.910Z,83.36
2018-12-09T15:23:28.312Z,83.66
2018-12-09T15:25:59.318Z,83.25
2018-12-09T15:28:29.867Z,83.24
2018-12-09T15:31:00.236Z,83.62
2018-12-09T15:33:31.707Z,82.88
2018-12-09T15:36:02.497Z,82.80
2018-12-09T15:38:32.847Z,82.77
2018-12-09T15:41:03.117Z,82.17
2018-12-09T15:43:33.252Z,82.21
2018-12-09T15:46:03.358Z,81.97
2018-12-09T15:51:11.743Z,81.49
2018-12-09T15:53:41.808Z,81.48
2018-12-09T15:56:11.907Z,81.15
2018-12-09T16:01:19.537Z,80.77
2018-12-09T16:03:49.492Z,80.85
2018-12-09T16:06:19.969Z,81.27
2018-12-09T16:08:50.084Z,80.96
2018-12-09T16:11:21.350Z,81.27
2018-12-09T16:13:52.177Z,81.46
2018-12-09T16:18:58.963Z,81.20
2018-12-09T16:24:05.936Z,81.56
2018-12-09T16:29:20.281Z,81.20
2018-12-09T16:31:50.343Z,81.27
2018-12-09T16:34:21.025Z,80.90
2018-12-09T16:36:51.374Z,80.77
2018-12-09T16:39:22.043Z,81.02
2018-12-09T16:41:52.623Z,80.80
2018-12-09T16:44:22.866Z,80.95
2018-12-09T16:46:52.938Z,80.31
2018-12-09T16:49:24.154Z,80.54
2018-12-09T16:51:54.743Z,80.15
2018-12-09T16:54:25.029Z,80.44
2018-12-09T16:56:55.470Z,80.74
2018-12-09T17:02:02.096Z,80.77
2018-12-09T17:04:32.597Z,80.78
2018-12-09T17:07:03.770Z,80.41
2018-12-09T17:09:34.286Z,80.86
2018-12-09T17:12:05.189Z,80.83
2018-12-09T17:14:35.321Z,81.03
2018-12-09T17:17:05.721Z,81.36
2018-12-09T17:19:37.727Z,81.46
2018-12-09T17:22:08.221Z,81.62
2018-12-09T17:24:38.614Z,81.60
2018-12-09T17:27:09.150Z,81.98
2018-12-09T17:29:39.312Z,81.79
2018-12-09T17:32:09.805Z,82.46
2018-12-09T17:34:40.289Z,82.88
2018-12-09T17:39:47.693Z,83.78
2018-12-09T17:42:18.209Z,83.72
2018-12-09T17:44:49.436Z,84.40
2018-12-09T17:47:19.916Z,84.85
2018-12-09T17:49:50.183Z,85.64
2018-12-09T17:52:24.879Z,85.40
2018-12-09T17:57:32.847Z,86.34
2018-12-09T18:00:03.164Z,86.55
2018-12-09T18:02:34.309Z,87.38
2018-12-09T18:05:06.285Z,87.40
2018-12-09T18:07:36.730Z,87.16
2018-12-09T18:10:07.344Z,87.56
2018-12-09T18:12:38.446Z,87.68
2018-12-09T18:15:13.176Z,87.60
2018-12-09T18:17:43.569Z,88.09
2018-12-09T18:20:13.969Z,87.75
2018-12-09T18:22:44.421Z,87.94
2018-12-09T18:25:14.675Z,87.73
2018-12-09T18:30:21.848Z,87.07
2018-12-09T18:32:53.524Z,87.40
2018-12-09T18:35:24.795Z,87.45
2018-12-09T18:37:55.344Z,87.54
2018-12-09T18:43:03.293Z,86.79
2018-12-09T18:45:33.792Z,86.96
2018-12-09T18:48:04.756Z,86.49
2018-12-09T18:50:38.929Z,86.65
2018-12-09T18:55:47.061Z,86.89
2018-12-09T18:58:17.640Z,86.23
2018-12-09T19:00:49.354Z,86.42
2018-12-09T19:03:19.788Z,86.73
2018-12-09T19:05:50.539Z,86.19
2018-12-09T19:08:21.116Z,86.14
2018-12-09T19:10:51.403Z,86.37
2018-12-09T19:13:22.261Z,86.48
2018-12-09T19:15:52.666Z,86.23
2018-12-09T19:21:00.429Z,86.09
2018-12-09T19:23:31.138Z,85.63
2018-12-09T19:26:01.792Z,85.31
2018-12-09T19:28:34.367Z,85.38
2018-12-09T19:31:05.856Z,85.38
2018-12-09T19:33:36.649Z,84.95
2018-12-09T19:36:07.292Z,84.67
2018-12-09T19:38:40.382Z,84.83
2018-12-09T19:41:10.591Z,84.70
2018-12-09T19:43:41.193Z,84.08
2018-12-09T19:46:11.681Z,83.45
2018-12-09T19:48:42.661Z,83.83
2018-12-09T19:51:13.181Z,83.83
2018-12-09T19:53:43.858Z,83.72
2018-12-09T19:56:14.583Z,83.74
2018-12-09T19:58:45.530Z,83.62
2018-12-09T20:01:16.145Z,83.89
2018-12-09T20:03:46.785Z,83.69
2018-12-09T20:06:17.345Z,84.11
2018-12-09T20:08:48.081Z,84.25
2018-12-09T20:11:18.772Z,83.83
2018-12-09T20:13:48.969Z,84.28
2018-12-09T20:16:20.197Z,83.96
2018-12-09T20:18:50.529Z,84.48
2018-12-09T20:21:20.903Z,84.22
2018-12-09T20:23:51.303Z,84.10
2018-12-09T20:26:21.969Z,83.99
2018-12-09T20:28:52.450Z,83.26
2018-12-09T20:31:22.729Z,83.24
2018-12-09T20:33:53.564Z,82.85
2018-12-09T20:36:23.955Z,82.97
2018-12-09T20:38:54.427Z,82.89
2018-12-09T20:41:25.211Z,82.94
2018-12-09T20:43:55.746Z,83.20
2018-12-09T20:46:26.017Z,83.54
2018-12-09T20:48:56.760Z,83.25
2018-12-09T20:51:26.880Z,84.23
2018-12-09T20:53:57.383Z,84.62
2018-12-09T20:56:27.957Z,84.63
2018-12-09T20:58:58.357Z,84.64
2018-12-09T21:01:28.701Z,84.28
2018-12-09T21:03:58.973Z,83.06
2018-12-09T21:09:07.488Z,83.88
2018-12-09T21:11:38.573Z,83.32
2018-12-09T21:14:08.708Z,82.97
2018-12-09T21:16:38.737Z,83.18
2018-12-09T21:19:08.880Z,82.47
2018-12-09T21:21:39.075Z,83.11
2018-12-09T21:24:09.297Z,83.37
2018-12-09T21:26:40.164Z,83.18
2018-12-09T21:29:10.529Z,83.68
2018-12-09T21:31:40.928Z,83.51
2018-12-09T21:34:11.851Z,83.88
2018-12-09T21:36:42.401Z,84.06
2018-12-09T21:39:13.012Z,83.80
2018-12-09T21:41:43.141Z,84.17
2018-12-09T21:44:13.241Z,83.84
2018-12-09T21:46:43.910Z,83.92
2018-12-09T21:49:14.472Z,84.29
2018-12-09T21:51:44.818Z,84.00
2018-12-09T21:54:15.242Z,84.35
2018-12-09T21:56:45.336Z,84.05
2018-12-09T21:59:15.457Z,84.15
2018-12-09T22:01:45.854Z,84.01
2018-12-09T22:04:16.029Z,84.43
2018-12-09T22:06:46.921Z,84.58
2018-12-09T22:09:17.348Z,84.64
2018-12-09T22:11:47.694Z,84.20
2018-12-09T22:14:18.492Z,83.97
2018-12-09T22:16:48.958Z,84.13
2018-12-09T22:19:19.597Z,82.95
2018-12-09T22:21:50.501Z,83.20
2018-12-09T22:26:57.231Z,83.27
2018-12-09T22:29:27.352Z,83.12
2018-12-09T22:31:57.508Z,82.84
2018-12-09T22:34:27.524Z,82.07
2018-12-09T22:36:57.778Z,82.38
2018-12-09T22:39:27.729Z,81.77
2018-12-09T22:41:58.607Z,81.48
2018-12-09T22:44:28.901Z,81.25
2018-12-09T22:46:59.862Z,81.33
2018-12-09T22:49:29.964Z,81.26
2018-12-09T22:52:01.156Z,81.44
2018-12-09T22:54:31.590Z,81.62
2018-12-09T22:57:01.911Z,81.96
2018-12-09T23:02:13.680Z,82.36
2018-12-09T23:04:43.877Z,82.82
2018-12-09T23:07:19.310Z,82.94
2018-12-09T23:09:50.109Z,83.44
2018-12-09T23:12:20.468Z,83.75
2018-12-09T23:14:50.733Z,84.10
2018-12-09T23:17:21.556Z,84.78
2018-12-09T23:19:52.902Z,84.55
2018-12-09T23:22:23.092Z,84.91
2018-12-09T23:24:53.573Z,84.75
2018-12-09T23:27:25.459Z,85.16
2018-12-09T23:29:55.585Z,84.94
2018-12-09T23:32:26.187Z,85.18
2018-12-09T23:34:56.544Z,85.65
2018-12-09T23:37:26.774Z,85.73
2018-12-09T23:39:57.610Z,86.28
2018-12-09T23:42:27.956Z,86.34
2018-12-09T23:44:58.797Z,86.42
2018-12-09T23:47:33.143Z,86.21
2018-12-09T23:50:03.641Z,86.62
2018-12-09T23:52:34.476Z,86.45
2018-12-09T23:55:06.341Z,86.40
2018-12-09T23:57:37.636Z,86.61
